CheckWX is a tool to help pilots better visualize weather data.  It is not intended as a substitute for an official pre-flight weather briefing.

07:31:53 UTC

NSFA TAF
Faleolo International Airport
Apia, Samoa
TAF NSFA 170507Z 1706/1806 11005KT 9999 FEW023 SCT064 PROB30 TEMPO 1712/1718 5000 TSRA FEW018CB

Jun-17@
06:00 UTC

Jun-17 @ 06:00 UTC

Jun-18@
06:00 UTC

Jun-18 @ 06:00 UTC

TAF NSFA 170507Z 1706/1806 11005KT 9999 FEW023 SCT064
Wind
  • 110° at 5 KTS
Cloud Levels
  • Few at 2,300' AGL
  • Scattered at 6,400' AGL

Jun-17@
12:00 UTC

Jun-17 @ 12:00 UTC

Jun-17@
18:00 UTC

Jun-17 @ 18:00 UTC

PROB30 TEMPO 1712/1718 5000 TSRA FEW018CB

Temporary - 30% Likelihood

Temporary - 30% Likelihood during this time.

Conditions
Thunderstorm, Rain
Cloud Levels
  • Few at 1,800' AGL